sensor_id;sensor_type;location;lat;lon;timestamp;temperature;humidity
23289;DHT22;11813;50.834;4.280;2023-09-19T00:00:37;17.00;99.90
23289;DHT22;11813;50.834;4.280;2023-09-19T00:03:03;17.00;99.90
23289;DHT22;11813;50.834;4.280;2023-09-19T00:05:33;17.00;99.90
23289;DHT22;11813;50.834;4.280;2023-09-19T00:08:00;17.00;99.90
23289;DHT22;11813;50.834;4.280;2023-09-19T00:10:27;17.00;99.90
23289;DHT22;11813;50.834;4.280;2023-09-19T00:12:57;17.00;99.90
23289;DHT22;11813;50.834;4.280;2023-09-19T00:15:24;16.90;99.90
23289;DHT22;11813;50.834;4.280;2023-09-19T00:17:52;16.90;99.90
23289;DHT22;11813;50.834;4.280;2023-09-19T00:20:18;16.80;99.90
23289;DHT22;11813;50.834;4.280;2023-09-19T00:22:44;16.80;99.90
23289;DHT22;11813;50.834;4.280;2023-09-19T00:25:10;16.80;99.90
23289;DHT22;11813;50.834;4.280;2023-09-19T00:27:39;16.80;99.90
23289;DHT22;11813;50.834;4.280;2023-09-19T00:30:06;16.70;99.90
23289;DHT22;11813;50.834;4.280;2023-09-19T00:32:34;16.80;99.90
23289;DHT22;11813;50.834;4.280;2023-09-19T00:35:00;16.80;99.90
23289;DHT22;11813;50.834;4.280;2023-09-19T00:37:25;16.90;99.90
23289;DHT22;11813;50.834;4.280;2023-09-19T00:39:51;16.90;99.90
23289;DHT22;11813;50.834;4.280;2023-09-19T00:42:20;16.80;99.90
23289;DHT22;11813;50.834;4.280;2023-09-19T00:44:47;16.70;99.90
23289;DHT22;11813;50.834;4.280;2023-09-19T00:47:12;16.70;99.90
23289;DHT22;11813;50.834;4.280;2023-09-19T00:49:44;16.70;99.90
23289;DHT22;11813;50.834;4.280;2023-09-19T00:52:11;16.60;99.90
23289;DHT22;11813;50.834;4.280;2023-09-19T00:54:37;16.50;99.90
23289;DHT22;11813;50.834;4.280;2023-09-19T00:57:03;16.60;99.90
23289;DHT22;11813;50.834;4.280;2023-09-19T00:59:29;16.70;99.90
23289;DHT22;11813;50.834;4.280;2023-09-19T01:01:56;16.60;99.90
23289;DHT22;11813;50.834;4.280;2023-09-19T01:04:22;16.70;99.90
23289;DHT22;11813;50.834;4.280;2023-09-19T01:06:49;16.60;99.90
23289;DHT22;11813;50.834;4.280;2023-09-19T01:09:19;16.60;99.90
23289;DHT22;11813;50.834;4.280;2023-09-19T01:11:48;16.60;99.90
23289;DHT22;11813;50.834;4.280;2023-09-19T01:17:25;16.60;99.90
23289;DHT22;11813;50.834;4.280;2023-09-19T01:20:27;16.60;99.90
23289;DHT22;11813;50.834;4.280;2023-09-19T01:29:17;16.50;99.90
23289;DHT22;11813;50.834;4.280;2023-09-19T01:31:45;16.60;99.90
23289;DHT22;11813;50.834;4.280;2023-09-19T01:34:12;16.60;99.90
23289;DHT22;11813;50.834;4.280;2023-09-19T01:36:38;16.50;99.90
23289;DHT22;11813;50.834;4.280;2023-09-19T01:39:05;16.50;99.90
23289;DHT22;11813;50.834;4.280;2023-09-19T01:41:56;16.60;99.90
23289;DHT22;11813;50.834;4.280;2023-09-19T01:44:31;16.50;99.90
23289;DHT22;11813;50.834;4.280;2023-09-19T01:47:04;16.50;99.90
23289;DHT22;11813;50.834;4.280;2023-09-19T01:49:43;16.50;99.90
23289;DHT22;11813;50.834;4.280;2023-09-19T01:52:15;16.50;99.90
23289;DHT22;11813;50.834;4.280;2023-09-19T01:54:52;16.40;99.90
23289;DHT22;11813;50.834;4.280;2023-09-19T01:57:29;16.30;99.90
23289;DHT22;11813;50.834;4.280;2023-09-19T02:00:07;16.30;99.90
23289;DHT22;11813;50.834;4.280;2023-09-19T02:02:46;16.30;99.90
23289;DHT22;11813;50.834;4.280;2023-09-19T02:05:13;16.40;99.90
23289;DHT22;11813;50.834;4.280;2023-09-19T02:07:39;16.40;99.90
23289;DHT22;11813;50.834;4.280;2023-09-19T02:10:06;16.40;99.90
23289;DHT22;11813;50.834;4.280;2023-09-19T02:12:32;16.30;99.90
23289;DHT22;11813;50.834;4.280;2023-09-19T02:14:59;16.40;99.90
23289;DHT22;11813;50.834;4.280;2023-09-19T02:17:27;16.40;99.90
23289;DHT22;11813;50.834;4.280;2023-09-19T02:19:53;16.40;99.90
23289;DHT22;11813;50.834;4.280;2023-09-19T02:22:20;16.40;99.90
23289;DHT22;11813;50.834;4.280;2023-09-19T02:24:46;16.30;99.90
23289;DHT22;11813;50.834;4.280;2023-09-19T02:27:13;16.30;99.90
23289;DHT22;11813;50.834;4.280;2023-09-19T02:29:44;16.30;99.90
23289;DHT22;11813;50.834;4.280;2023-09-19T02:32:09;16.30;99.90
23289;DHT22;11813;50.834;4.280;2023-09-19T02:34:36;16.30;99.90
23289;DHT22;11813;50.834;4.280;2023-09-19T02:37:03;16.30;99.90
23289;DHT22;11813;50.834;4.280;2023-09-19T02:39:30;16.20;99.90
23289;DHT22;11813;50.834;4.280;2023-09-19T02:41:56;16.20;99.90
23289;DHT22;11813;50.834;4.280;2023-09-19T02:44:22;16.20;99.90
23289;DHT22;11813;50.834;4.280;2023-09-19T02:46:49;16.10;99.90
23289;DHT22;11813;50.834;4.280;2023-09-19T02:49:15;16.20;99.90
23289;DHT22;11813;50.834;4.280;2023-09-19T02:51:40;16.30;99.90
23289;DHT22;11813;50.834;4.280;2023-09-19T02:54:07;16.10;99.90
23289;DHT22;11813;50.834;4.280;2023-09-19T02:56:33;16.10;99.90
23289;DHT22;11813;50.834;4.280;2023-09-19T02:58:58;16.10;99.90
23289;DHT22;11813;50.834;4.280;2023-09-19T03:01:26;16.10;99.90
23289;DHT22;11813;50.834;4.280;2023-09-19T03:03:52;16.00;99.90
23289;DHT22;11813;50.834;4.280;2023-09-19T03:06:19;16.00;99.90
23289;DHT22;11813;50.834;4.280;2023-09-19T03:08:46;16.00;99.90
23289;DHT22;11813;50.834;4.280;2023-09-19T03:11:12;16.00;99.90
23289;DHT22;11813;50.834;4.280;2023-09-19T03:13:40;16.00;99.90
23289;DHT22;11813;50.834;4.280;2023-09-19T03:16:07;15.90;99.90
23289;DHT22;11813;50.834;4.280;2023-09-19T03:18:35;15.90;99.90
23289;DHT22;11813;50.834;4.280;2023-09-19T03:21:01;15.80;99.90
23289;DHT22;11813;50.834;4.280;2023-09-19T03:23:27;15.70;99.90
23289;DHT22;11813;50.834;4.280;2023-09-19T03:25:56;15.80;99.90
23289;DHT22;11813;50.834;4.280;2023-09-19T03:28:23;15.80;99.90
23289;DHT22;11813;50.834;4.280;2023-09-19T03:31:02;15.70;99.90
23289;DHT22;11813;50.834;4.280;2023-09-19T03:33:28;15.70;99.90
23289;DHT22;11813;50.834;4.280;2023-09-19T03:35:54;15.80;99.90
23289;DHT22;11813;50.834;4.280;2023-09-19T03:38:20;15.80;99.90
23289;DHT22;11813;50.834;4.280;2023-09-19T03:40:47;15.90;99.90
23289;DHT22;11813;50.834;4.280;2023-09-19T03:43:13;15.90;99.90
23289;DHT22;11813;50.834;4.280;2023-09-19T03:45:38;15.80;99.90
23289;DHT22;11813;50.834;4.280;2023-09-19T03:48:11;15.80;99.90
23289;DHT22;11813;50.834;4.280;2023-09-19T03:50:37;15.90;99.90
23289;DHT22;11813;50.834;4.280;2023-09-19T03:53:03;15.80;99.90
23289;DHT22;11813;50.834;4.280;2023-09-19T03:55:29;15.90;99.90
23289;DHT22;11813;50.834;4.280;2023-09-19T03:57:57;15.80;99.90
23289;DHT22;11813;50.834;4.280;2023-09-19T04:00:23;15.80;99.90
23289;DHT22;11813;50.834;4.280;2023-09-19T04:02:52;15.80;99.90
23289;DHT22;11813;50.834;4.280;2023-09-19T04:05:18;15.80;99.90
23289;DHT22;11813;50.834;4.280;2023-09-19T04:07:44;15.70;99.90
23289;DHT22;11813;50.834;4.280;2023-09-19T04:10:10;15.70;99.90
23289;DHT22;11813;50.834;4.280;2023-09-19T04:12:37;15.70;99.90
23289;DHT22;11813;50.834;4.280;2023-09-19T04:15:06;15.60;99.90
23289;DHT22;11813;50.834;4.280;2023-09-19T04:17:33;15.60;99.90
23289;DHT22;11813;50.834;4.280;2023-09-19T04:19:59;15.50;99.90
23289;DHT22;11813;50.834;4.280;2023-09-19T04:22:25;15.50;99.90
23289;DHT22;11813;50.834;4.280;2023-09-19T04:24:50;15.60;99.90
23289;DHT22;11813;50.834;4.280;2023-09-19T04:27:16;15.50;99.90
23289;DHT22;11813;50.834;4.280;2023-09-19T04:29:42;15.60;99.90
23289;DHT22;11813;50.834;4.280;2023-09-19T04:32:08;15.60;99.90
23289;DHT22;11813;50.834;4.280;2023-09-19T04:34:35;15.60;99.90
23289;DHT22;11813;50.834;4.280;2023-09-19T04:37:00;15.60;99.90
23289;DHT22;11813;50.834;4.280;2023-09-19T04:39:27;15.60;99.90
23289;DHT22;11813;50.834;4.280;2023-09-19T04:41:53;15.60;99.90
23289;DHT22;11813;50.834;4.280;2023-09-19T04:44:20;15.60;99.90
23289;DHT22;11813;50.834;4.280;2023-09-19T04:46:46;15.70;99.90
23289;DHT22;11813;50.834;4.280;2023-09-19T04:49:12;15.70;99.90
23289;DHT22;11813;50.834;4.280;2023-09-19T04:51:39;15.60;99.90
23289;DHT22;11813;50.834;4.280;2023-09-19T04:54:05;15.70;99.90
23289;DHT22;11813;50.834;4.280;2023-09-19T04:56:32;15.70;99.90
23289;DHT22;11813;50.834;4.280;2023-09-19T04:58:58;15.70;99.90
23289;DHT22;11813;50.834;4.280;2023-09-19T05:01:24;15.80;99.90
23289;DHT22;11813;50.834;4.280;2023-09-19T05:03:50;15.80;99.90
23289;DHT22;11813;50.834;4.280;2023-09-19T05:06:19;15.80;99.90
23289;DHT22;11813;50.834;4.280;2023-09-19T05:08:48;15.70;99.90
23289;DHT22;11813;50.834;4.280;2023-09-19T05:11:18;15.60;99.90
23289;DHT22;11813;50.834;4.280;2023-09-19T05:13:44;15.60;99.90
23289;DHT22;11813;50.834;4.280;2023-09-19T05:16:10;15.60;99.90
23289;DHT22;11813;50.834;4.280;2023-09-19T05:18:36;15.60;99.90
23289;DHT22;11813;50.834;4.280;2023-09-19T05:21:02;15.50;99.90
23289;DHT22;11813;50.834;4.280;2023-09-19T05:23:28;15.50;99.90
23289;DHT22;11813;50.834;4.280;2023-09-19T05:25:54;15.50;99.90
23289;DHT22;11813;50.834;4.280;2023-09-19T05:28:22;15.50;99.90
23289;DHT22;11813;50.834;4.280;2023-09-19T05:30:48;15.50;99.90
23289;DHT22;11813;50.834;4.280;2023-09-19T05:33:14;15.40;99.90
23289;DHT22;11813;50.834;4.280;2023-09-19T05:35:40;15.40;99.90
23289;DHT22;11813;50.834;4.280;2023-09-19T05:38:07;15.40;99.90
23289;DHT22;11813;50.834;4.280;2023-09-19T05:40:38;15.30;99.90
23289;DHT22;11813;50.834;4.280;2023-09-19T05:43:07;15.40;99.90
23289;DHT22;11813;50.834;4.280;2023-09-19T05:45:33;15.40;99.90
23289;DHT22;11813;50.834;4.280;2023-09-19T05:48:08;15.30;99.90
23289;DHT22;11813;50.834;4.280;2023-09-19T05:50:34;15.30;99.90
23289;DHT22;11813;50.834;4.280;2023-09-19T05:52:59;15.30;99.90
23289;DHT22;11813;50.834;4.280;2023-09-19T05:55:25;15.30;99.90
23289;DHT22;11813;50.834;4.280;2023-09-19T05:57:51;15.30;99.90
23289;DHT22;11813;50.834;4.280;2023-09-19T06:00:22;15.40;99.90
23289;DHT22;11813;50.834;4.280;2023-09-19T06:02:54;15.40;99.90
23289;DHT22;11813;50.834;4.280;2023-09-19T06:05:21;15.30;99.90
23289;DHT22;11813;50.834;4.280;2023-09-19T06:07:46;15.30;99.90
23289;DHT22;11813;50.834;4.280;2023-09-19T06:10:12;15.40;99.90
23289;DHT22;11813;50.834;4.280;2023-09-19T06:12:42;15.40;99.90
23289;DHT22;11813;50.834;4.280;2023-09-19T06:15:12;15.50;99.90
23289;DHT22;11813;50.834;4.280;2023-09-19T06:17:47;15.50;99.90
23289;DHT22;11813;50.834;4.280;2023-09-19T06:20:13;15.40;99.90
23289;DHT22;11813;50.834;4.280;2023-09-19T06:22:45;15.40;99.90
23289;DHT22;11813;50.834;4.280;2023-09-19T06:25:12;15.30;99.90
23289;DHT22;11813;50.834;4.280;2023-09-19T06:27:48;15.30;99.90
23289;DHT22;11813;50.834;4.280;2023-09-19T06:30:14;15.30;99.90
23289;DHT22;11813;50.834;4.280;2023-09-19T06:32:41;15.40;99.90
23289;DHT22;11813;50.834;4.280;2023-09-19T06:35:10;15.50;99.90
23289;DHT22;11813;50.834;4.280;2023-09-19T06:37:37;15.50;99.90
23289;DHT22;11813;50.834;4.280;2023-09-19T06:40:10;15.50;99.90
23289;DHT22;11813;50.834;4.280;2023-09-19T06:42:43;15.60;99.90
23289;DHT22;11813;50.834;4.280;2023-09-19T06:45:11;15.70;99.90
23289;DHT22;11813;50.834;4.280;2023-09-19T06:47:39;15.80;99.90
23289;DHT22;11813;50.834;4.280;2023-09-19T06:50:05;15.70;99.90
23289;DHT22;11813;50.834;4.280;2023-09-19T06:52:32;15.60;99.90
23289;DHT22;11813;50.834;4.280;2023-09-19T06:54:58;15.70;99.90
23289;DHT22;11813;50.834;4.280;2023-09-19T06:57:24;15.70;99.90
23289;DHT22;11813;50.834;4.280;2023-09-19T06:59:50;15.70;99.90
23289;DHT22;11813;50.834;4.280;2023-09-19T07:02:15;15.80;99.90
23289;DHT22;11813;50.834;4.280;2023-09-19T07:04:41;15.80;99.90
23289;DHT22;11813;50.834;4.280;2023-09-19T07:07:07;15.80;99.90
23289;DHT22;11813;50.834;4.280;2023-09-19T07:09:34;15.80;99.90
23289;DHT22;11813;50.834;4.280;2023-09-19T07:12:00;15.80;99.90
23289;DHT22;11813;50.834;4.280;2023-09-19T07:14:26;15.80;99.90
23289;DHT22;11813;50.834;4.280;2023-09-19T07:16:52;15.80;99.90
23289;DHT22;11813;50.834;4.280;2023-09-19T07:19:18;15.90;99.90
23289;DHT22;11813;50.834;4.280;2023-09-19T07:21:43;15.90;99.90
23289;DHT22;11813;50.834;4.280;2023-09-19T07:24:09;16.00;99.90
23289;DHT22;11813;50.834;4.280;2023-09-19T07:26:34;16.10;99.90
23289;DHT22;11813;50.834;4.280;2023-09-19T07:29:00;16.20;99.90
23289;DHT22;11813;50.834;4.280;2023-09-19T07:31:29;16.20;99.90
23289;DHT22;11813;50.834;4.280;2023-09-19T07:33:55;16.30;99.90
23289;DHT22;11813;50.834;4.280;2023-09-19T07:36:20;16.30;99.90
23289;DHT22;11813;50.834;4.280;2023-09-19T07:38:46;16.40;99.90
23289;DHT22;11813;50.834;4.280;2023-09-19T07:41:13;16.40;99.90
23289;DHT22;11813;50.834;4.280;2023-09-19T07:43:39;16.60;99.90
23289;DHT22;11813;50.834;4.280;2023-09-19T07:46:06;16.50;99.90
23289;DHT22;11813;50.834;4.280;2023-09-19T07:48:35;16.50;99.90
23289;DHT22;11813;50.834;4.280;2023-09-19T07:51:05;16.60;99.90
23289;DHT22;11813;50.834;4.280;2023-09-19T07:53:32;16.70;99.90
23289;DHT22;11813;50.834;4.280;2023-09-19T07:56:07;16.80;99.90
23289;DHT22;11813;50.834;4.280;2023-09-19T07:58:33;16.90;99.90
23289;DHT22;11813;50.834;4.280;2023-09-19T08:01:07;16.90;99.90
23289;DHT22;11813;50.834;4.280;2023-09-19T08:03:33;17.10;99.90
23289;DHT22;11813;50.834;4.280;2023-09-19T08:06:00;17.10;99.90
23289;DHT22;11813;50.834;4.280;2023-09-19T08:08:26;17.10;99.90
23289;DHT22;11813;50.834;4.280;2023-09-19T08:10:53;17.40;99.90
23289;DHT22;11813;50.834;4.280;2023-09-19T08:13:21;17.30;99.90
23289;DHT22;11813;50.834;4.280;2023-09-19T08:15:47;17.40;99.90
23289;DHT22;11813;50.834;4.280;2023-09-19T08:18:14;17.50;99.90
23289;DHT22;11813;50.834;4.280;2023-09-19T08:20:40;17.50;99.90
23289;DHT22;11813;50.834;4.280;2023-09-19T08:23:07;17.60;99.90
23289;DHT22;11813;50.834;4.280;2023-09-19T08:25:33;17.60;99.90
23289;DHT22;11813;50.834;4.280;2023-09-19T08:28:00;17.60;99.90
23289;DHT22;11813;50.834;4.280;2023-09-19T08:30:33;17.70;99.90
23289;DHT22;11813;50.834;4.280;2023-09-19T08:33:00;17.70;99.90
23289;DHT22;11813;50.834;4.280;2023-09-19T08:35:27;17.80;99.90
23289;DHT22;11813;50.834;4.280;2023-09-19T08:37:53;18.00;99.90
23289;DHT22;11813;50.834;4.280;2023-09-19T08:40:18;18.00;99.90
23289;DHT22;11813;50.834;4.280;2023-09-19T08:42:51;18.20;99.90
23289;DHT22;11813;50.834;4.280;2023-09-19T08:45:19;18.30;99.90
23289;DHT22;11813;50.834;4.280;2023-09-19T08:48:12;18.40;99.90
23289;DHT22;11813;50.834;4.280;2023-09-19T08:50:48;18.30;99.90
23289;DHT22;11813;50.834;4.280;2023-09-19T08:53:21;18.30;99.90
23289;DHT22;11813;50.834;4.280;2023-09-19T08:55:52;18.30;99.90
23289;DHT22;11813;50.834;4.280;2023-09-19T08:58:22;18.30;99.90
23289;DHT22;11813;50.834;4.280;2023-09-19T09:00:53;18.40;99.90
23289;DHT22;11813;50.834;4.280;2023-09-19T09:03:20;18.40;99.90
23289;DHT22;11813;50.834;4.280;2023-09-19T09:05:47;18.50;99.90
23289;DHT22;11813;50.834;4.280;2023-09-19T09:08:17;18.70;99.90
23289;DHT22;11813;50.834;4.280;2023-09-19T09:10:44;18.80;99.90
23289;DHT22;11813;50.834;4.280;2023-09-19T09:13:10;18.80;99.90
23289;DHT22;11813;50.834;4.280;2023-09-19T09:15:40;19.10;99.90
23289;DHT22;11813;50.834;4.280;2023-09-19T09:18:06;19.00;99.90
23289;DHT22;11813;50.834;4.280;2023-09-19T09:20:32;19.00;99.90
23289;DHT22;11813;50.834;4.280;2023-09-19T09:22:58;19.10;99.90
23289;DHT22;11813;50.834;4.280;2023-09-19T09:28:20;19.30;99.90
23289;DHT22;11813;50.834;4.280;2023-09-19T09:30:46;19.10;99.90
23289;DHT22;11813;50.834;4.280;2023-09-19T09:33:13;19.00;99.90
23289;DHT22;11813;50.834;4.280;2023-09-19T09:35:58;18.90;99.90
23289;DHT22;11813;50.834;4.280;2023-09-19T09:38:46;18.90;99.90
23289;DHT22;11813;50.834;4.280;2023-09-19T09:41:15;18.70;99.90
23289;DHT22;11813;50.834;4.280;2023-09-19T09:43:52;18.80;99.90
23289;DHT22;11813;50.834;4.280;2023-09-19T09:46:20;18.90;99.90
23289;DHT22;11813;50.834;4.280;2023-09-19T09:49:07;19.00;99.90
23289;DHT22;11813;50.834;4.280;2023-09-19T09:52:02;18.90;99.90
23289;DHT22;11813;50.834;4.280;2023-09-19T09:55:02;18.80;99.90
23289;DHT22;11813;50.834;4.280;2023-09-19T09:57:31;18.90;99.90
23289;DHT22;11813;50.834;4.280;2023-09-19T09:59:59;18.80;99.90
23289;DHT22;11813;50.834;4.280;2023-09-19T10:02:41;19.00;99.90
23289;DHT22;11813;50.834;4.280;2023-09-19T10:07:47;19.00;99.90
23289;DHT22;11813;50.834;4.280;2023-09-19T10:10:34;19.20;99.90
23289;DHT22;11813;50.834;4.280;2023-09-19T10:13:13;19.50;99.90
23289;DHT22;11813;50.834;4.280;2023-09-19T10:15:43;19.50;99.90
23289;DHT22;11813;50.834;4.280;2023-09-19T10:18:14;19.50;99.90
23289;DHT22;11813;50.834;4.280;2023-09-19T10:20:45;19.70;99.90
23289;DHT22;11813;50.834;4.280;2023-09-19T10:23:12;19.80;99.90
23289;DHT22;11813;50.834;4.280;2023-09-19T10:25:41;20.00;99.90
23289;DHT22;11813;50.834;4.280;2023-09-19T10:28:10;20.10;99.90
23289;DHT22;11813;50.834;4.280;2023-09-19T10:30:46;20.20;99.90
23289;DHT22;11813;50.834;4.280;2023-09-19T10:33:18;20.30;99.90
23289;DHT22;11813;50.834;4.280;2023-09-19T10:35:47;20.30;99.90
23289;DHT22;11813;50.834;4.280;2023-09-19T10:38:16;20.30;99.90
23289;DHT22;11813;50.834;4.280;2023-09-19T10:40:44;20.50;99.90
23289;DHT22;11813;50.834;4.280;2023-09-19T10:43:16;20.60;99.90
23289;DHT22;11813;50.834;4.280;2023-09-19T10:45:46;20.80;99.90
23289;DHT22;11813;50.834;4.280;2023-09-19T10:48:18;20.70;99.90
23289;DHT22;11813;50.834;4.280;2023-09-19T10:51:18;20.90;99.90
23289;DHT22;11813;50.834;4.280;2023-09-19T10:53:55;21.00;99.90
23289;DHT22;11813;50.834;4.280;2023-09-19T10:56:36;21.00;99.90
23289;DHT22;11813;50.834;4.280;2023-09-19T11:01:45;21.20;99.90
23289;DHT22;11813;50.834;4.280;2023-09-19T11:04:30;21.20;99.90
23289;DHT22;11813;50.834;4.280;2023-09-19T11:14:58;21.80;99.90
23289;DHT22;11813;50.834;4.280;2023-09-19T11:17:37;21.80;99.90
23289;DHT22;11813;50.834;4.280;2023-09-19T11:30:32;22.20;99.90
23289;DHT22;11813;50.834;4.280;2023-09-19T11:33:18;22.00;99.90
23289;DHT22;11813;50.834;4.280;2023-09-19T11:39:01;21.90;99.90
23289;DHT22;11813;50.834;4.280;2023-09-19T11:41:40;21.70;99.90
23289;DHT22;11813;50.834;4.280;2023-09-19T11:46:33;21.80;99.90
23289;DHT22;11813;50.834;4.280;2023-09-19T11:49:06;21.60;99.90
23289;DHT22;11813;50.834;4.280;2023-09-19T11:51:40;21.40;99.90
23289;DHT22;11813;50.834;4.280;2023-09-19T11:54:11;21.10;99.90
23289;DHT22;11813;50.834;4.280;2023-09-19T11:56:53;21.10;99.90
23289;DHT22;11813;50.834;4.280;2023-09-19T11:59:26;21.40;99.90
23289;DHT22;11813;50.834;4.280;2023-09-19T12:01:57;21.50;99.90
23289;DHT22;11813;50.834;4.280;2023-09-19T12:04:42;21.80;99.90
23289;DHT22;11813;50.834;4.280;2023-09-19T12:07:10;22.20;99.90
23289;DHT22;11813;50.834;4.280;2023-09-19T12:09:44;22.00;99.90
23289;DHT22;11813;50.834;4.280;2023-09-19T12:12:20;21.90;99.90
23289;DHT22;11813;50.834;4.280;2023-09-19T12:14:49;21.60;99.90
23289;DHT22;11813;50.834;4.280;2023-09-19T12:17:16;21.70;99.90
23289;DHT22;11813;50.834;4.280;2023-09-19T12:19:56;21.50;99.90
23289;DHT22;11813;50.834;4.280;2023-09-19T12:22:22;21.60;99.90
23289;DHT22;11813;50.834;4.280;2023-09-19T12:24:48;21.50;99.90
23289;DHT22;11813;50.834;4.280;2023-09-19T12:27:14;21.30;99.90
23289;DHT22;11813;50.834;4.280;2023-09-19T12:29:45;21.30;99.90
23289;DHT22;11813;50.834;4.280;2023-09-19T12:32:10;21.20;99.90
23289;DHT22;11813;50.834;4.280;2023-09-19T12:34:36;21.10;99.90
23289;DHT22;11813;50.834;4.280;2023-09-19T12:37:11;21.00;99.90
23289;DHT22;11813;50.834;4.280;2023-09-19T12:39:41;21.10;99.90
23289;DHT22;11813;50.834;4.280;2023-09-19T12:42:09;21.10;99.90
23289;DHT22;11813;50.834;4.280;2023-09-19T12:44:37;20.90;99.90
23289;DHT22;11813;50.834;4.280;2023-09-19T12:47:15;20.90;99.90
23289;DHT22;11813;50.834;4.280;2023-09-19T12:50:17;20.70;99.90
23289;DHT22;11813;50.834;4.280;2023-09-19T12:52:51;20.70;99.90
23289;DHT22;11813;50.834;4.280;2023-09-19T12:55:25;20.80;99.90
23289;DHT22;11813;50.834;4.280;2023-09-19T12:58:14;20.90;99.90
23289;DHT22;11813;50.834;4.280;2023-09-19T13:00:42;21.00;99.90
23289;DHT22;11813;50.834;4.280;2023-09-19T13:03:12;20.90;99.90
23289;DHT22;11813;50.834;4.280;2023-09-19T13:06:00;21.00;99.90
23289;DHT22;11813;50.834;4.280;2023-09-19T13:08:32;20.90;99.90
23289;DHT22;11813;50.834;4.280;2023-09-19T13:13:27;20.80;99.90
23289;DHT22;11813;50.834;4.280;2023-09-19T13:15:53;20.80;99.90
23289;DHT22;11813;50.834;4.280;2023-09-19T13:18:19;21.00;99.90
23289;DHT22;11813;50.834;4.280;2023-09-19T13:21:08;21.10;99.90
23289;DHT22;11813;50.834;4.280;2023-09-19T13:23:54;21.00;99.90
23289;DHT22;11813;50.834;4.280;2023-09-19T13:26:27;21.10;99.90
23289;DHT22;11813;50.834;4.280;2023-09-19T13:28:56;20.90;99.90
23289;DHT22;11813;50.834;4.280;2023-09-19T13:31:22;21.10;99.90
23289;DHT22;11813;50.834;4.280;2023-09-19T13:33:49;21.10;99.90
23289;DHT22;11813;50.834;4.280;2023-09-19T13:36:15;21.20;99.90
23289;DHT22;11813;50.834;4.280;2023-09-19T13:38:41;21.00;99.90
23289;DHT22;11813;50.834;4.280;2023-09-19T13:41:10;20.90;99.90
23289;DHT22;11813;50.834;4.280;2023-09-19T13:43:37;21.00;99.90
23289;DHT22;11813;50.834;4.280;2023-09-19T13:46:04;20.90;99.90
23289;DHT22;11813;50.834;4.280;2023-09-19T13:48:30;21.00;99.90
23289;DHT22;11813;50.834;4.280;2023-09-19T13:50:58;21.00;99.90
23289;DHT22;11813;50.834;4.280;2023-09-19T13:53:25;20.90;99.90
23289;DHT22;11813;50.834;4.280;2023-09-19T13:55:51;20.80;99.90
23289;DHT22;11813;50.834;4.280;2023-09-19T13:58:17;20.80;99.90
23289;DHT22;11813;50.834;4.280;2023-09-19T14:00:42;20.80;99.90
23289;DHT22;11813;50.834;4.280;2023-09-19T14:03:08;20.70;99.90
23289;DHT22;11813;50.834;4.280;2023-09-19T14:05:35;20.60;99.90
23289;DHT22;11813;50.834;4.280;2023-09-19T14:08:00;20.60;99.90
23289;DHT22;11813;50.834;4.280;2023-09-19T14:10:28;20.60;99.90
23289;DHT22;11813;50.834;4.280;2023-09-19T14:12:55;20.60;99.90
23289;DHT22;11813;50.834;4.280;2023-09-19T14:15:23;20.70;99.90
23289;DHT22;11813;50.834;4.280;2023-09-19T14:17:58;20.80;99.90
23289;DHT22;11813;50.834;4.280;2023-09-19T14:20:24;20.80;99.90
23289;DHT22;11813;50.834;4.280;2023-09-19T14:22:52;21.00;99.90
23289;DHT22;11813;50.834;4.280;2023-09-19T14:25:18;21.10;99.90
23289;DHT22;11813;50.834;4.280;2023-09-19T14:27:43;21.00;99.90
23289;DHT22;11813;50.834;4.280;2023-09-19T14:30:09;21.10;99.90
23289;DHT22;11813;50.834;4.280;2023-09-19T14:32:35;21.20;99.90
23289;DHT22;11813;50.834;4.280;2023-09-19T14:35:02;21.30;99.90
23289;DHT22;11813;50.834;4.280;2023-09-19T14:37:28;21.40;99.90
23289;DHT22;11813;50.834;4.280;2023-09-19T14:39:54;21.60;99.90
23289;DHT22;11813;50.834;4.280;2023-09-19T14:42:20;21.50;99.90
23289;DHT22;11813;50.834;4.280;2023-09-19T14:44:45;21.50;99.90
23289;DHT22;11813;50.834;4.280;2023-09-19T14:47:13;21.30;99.90
23289;DHT22;11813;50.834;4.280;2023-09-19T14:49:39;21.10;99.90
23289;DHT22;11813;50.834;4.280;2023-09-19T14:52:11;20.90;99.90
23289;DHT22;11813;50.834;4.280;2023-09-19T14:54:37;20.90;99.90
23289;DHT22;11813;50.834;4.280;2023-09-19T14:57:06;20.80;99.90
23289;DHT22;11813;50.834;4.280;2023-09-19T14:59:34;20.80;99.90
23289;DHT22;11813;50.834;4.280;2023-09-19T15:02:06;20.70;99.90
23289;DHT22;11813;50.834;4.280;2023-09-19T15:04:32;20.70;99.90
23289;DHT22;11813;50.834;4.280;2023-09-19T15:06:59;20.70;99.90
23289;DHT22;11813;50.834;4.280;2023-09-19T15:09:25;20.70;99.90
23289;DHT22;11813;50.834;4.280;2023-09-19T15:11:55;20.70;99.90
23289;DHT22;11813;50.834;4.280;2023-09-19T15:14:21;20.70;99.90
23289;DHT22;11813;50.834;4.280;2023-09-19T15:16:48;20.60;99.90
23289;DHT22;11813;50.834;4.280;2023-09-19T15:19:14;20.50;99.90
23289;DHT22;11813;50.834;4.280;2023-09-19T15:21:40;20.40;99.90
23289;DHT22;11813;50.834;4.280;2023-09-19T15:24:06;20.40;99.90
23289;DHT22;11813;50.834;4.280;2023-09-19T15:26:36;20.40;99.90
23289;DHT22;11813;50.834;4.280;2023-09-19T15:29:07;20.40;99.90
23289;DHT22;11813;50.834;4.280;2023-09-19T15:31:33;20.30;99.90
23289;DHT22;11813;50.834;4.280;2023-09-19T15:34:02;20.30;99.90
23289;DHT22;11813;50.834;4.280;2023-09-19T15:36:27;20.30;99.90
23289;DHT22;11813;50.834;4.280;2023-09-19T15:39:00;20.30;99.90
23289;DHT22;11813;50.834;4.280;2023-09-19T15:41:28;20.30;99.90
23289;DHT22;11813;50.834;4.280;2023-09-19T15:43:56;20.30;99.90
23289;DHT22;11813;50.834;4.280;2023-09-19T15:46:22;20.30;99.90
23289;DHT22;11813;50.834;4.280;2023-09-19T15:48:47;20.20;99.90
23289;DHT22;11813;50.834;4.280;2023-09-19T15:51:13;20.20;99.90
23289;DHT22;11813;50.834;4.280;2023-09-19T15:53:46;20.20;99.90
23289;DHT22;11813;50.834;4.280;2023-09-19T15:56:13;20.20;99.90
23289;DHT22;11813;50.834;4.280;2023-09-19T15:58:44;20.10;99.90
23289;DHT22;11813;50.834;4.280;2023-09-19T16:01:10;20.10;99.90
23289;DHT22;11813;50.834;4.280;2023-09-19T16:03:39;20.10;99.90
23289;DHT22;11813;50.834;4.280;2023-09-19T16:06:13;20.10;99.90
23289;DHT22;11813;50.834;4.280;2023-09-19T16:08:46;20.10;99.90
23289;DHT22;11813;50.834;4.280;2023-09-19T16:11:13;20.10;99.90
23289;DHT22;11813;50.834;4.280;2023-09-19T16:13:40;20.10;99.90
23289;DHT22;11813;50.834;4.280;2023-09-19T16:16:09;20.10;99.90
23289;DHT22;11813;50.834;4.280;2023-09-19T16:18:55;20.10;99.90
23289;DHT22;11813;50.834;4.280;2023-09-19T16:21:27;19.90;99.90
23289;DHT22;11813;50.834;4.280;2023-09-19T16:23:54;19.80;99.90
23289;DHT22;11813;50.834;4.280;2023-09-19T16:26:21;19.90;99.90